SE14 weather

San Carlos Airport
José Real, Guayas Province, Ecuador

Public forecast

Using degrees Celsius for public forecast. Weather courtesy of forecast.io.

METAR (pilot weather report)

Closest report is José Joaquín de Olmedo International Airport, 27.0 nm (50.0 km) W. Retrieved 2019/05/19 22:00 UTC (6 minutes ago):

SEGU 192200Z 050/6KT 9999 BKN026 BKN100 28/24 Q1009 NOSIG RMK A2980

TAF (pilot weather forecast)

Closest forecast is José Joaquín de Olmedo International Airport, 27.0 nm (50.0 km) W. Retrieved 2019/05/19 18:00 UTC (4 hours ago):

TAF SEGU 191630Z 1918/2018 13004KT 9999 SCT026 BKN100 FM200000 20010KT 9999 SCT023 BKN100 TEMPO 2003/2005 RA FM200800 21004KT 9999 RA FEW010 BKN023 BKN090 BECMG 2012/2015 9999 BKN026 BKN100 TX32/1919Z TN24/2009Z